Latest Coastal Weather Observations for Mackay

IDQ60701

Issued at 2:02 pm EST Tuesday 17 July 2018 (issued every 10 minutes, with the page automatically refreshed every 10 minutes)

About coastal observations | Map of coastal stations | Coastal observations for QLD | Marine services | Other Formats
Station Details ID: 033119 Name: MACKAY M.O Lat: -21.12 Lon: 149.22 Height: 30.26 m
Data from the previous 72 hours. | See also: Recent months at Mackay
Date/Time
EST
Temp
°C
Wind Pressure Rain since
9am
mm
Weather Cloud Vis
km
Sea
Height
m
Swell
Dir  Spd
kts
Gust
kts
hPa Trend Height
m
Period
s
Dir
17/02:00pm 20.5 ESE 6 11 1017.2 - 0.0 - Partly cloudy - - - - -
17/01:51pm 20.3 SE 5 9 1017.2 - 0.0 - Partly cloudy - - - - -
17/01:30pm 20.6 ESE 6 10 1017.4 - 0.0 - - - - - - -
17/01:00pm 20.3 SE 8 11 1017.6 - 0.0 - - - - - - -
17/12:30pm 20.4 SE 7 11 1017.9 - 0.0 - - - - - - -
17/12:00pm 20.6 SE 7 11 1018.4 R 0.0 - - - - - - -
17/11:30am 20.3 SE 7 13 1018.6 - 0.0 - - - - - - -
17/11:00am 20.4 SSE 7 11 1018.7 - 0.0 - - - - - - -
17/10:30am 20.2 S 7 11 1018.9 - 0.0 - - - - - - -
17/10:00am 18.9 SSW 7 10 1019.0 - 0.0 - - - - - - -
17/09:30am 18.2 SSW 8 11 1019.1 - 0.0 - - - - - - -
17/09:00am 16.4 SSW 6 8 1019.1 R 0.0 - - - - - - -
17/08:30am 14.5 SSW 6 8 1018.6 - 0.0 - Partly cloudy - - - - -
17/08:28am 14.2 SSW 6 8 1018.6 - 0.0 - Partly cloudy - - - - -
17/08:00am 12.6 SW 7 8 1018.5 - 0.0 - Partly cloudy - - - - -
17/07:46am 11.7 SW 7 9 1018.3 - 0.0 - Partly cloudy - - - - -
17/07:30am 11.0 SW 7 9 1018.0 - 0.0 - Partly cloudy - - - - -
17/07:17am 10.7 SW 8 10 1017.9 - 0.0 - Partly cloudy - - - - -
17/07:03am 10.7 SW 7 8 1017.9 - 0.0 - Partly cloudy - - - - -
17/07:00am 10.7 SW 7 9 1017.9 - 0.0 - Partly cloudy - - - - -
17/06:56am 10.8 SW 7 9 1017.8 - 0.0 - Partly cloudy - - - - -
17/06:43am 10.8 WSW 7 9 1017.5 - 0.0 - Partly cloudy - - - - -
17/06:30am 10.8 SW 8 10 1017.3 - 0.0 - - - - - - -
17/06:00am 11.1 WSW 9 11 1016.9 R 0.0 - - - - - - -
17/05:30am 11.5 WSW 8 10 1016.5 - 0.0 - - - - - - -
17/05:26am 11.6 WSW 7 10 1016.5 - 0.0 - Partly cloudy - - - - -
17/05:00am 12.3 WSW 6 8 1016.4 - 0.0 - Cloudy - - - - -
17/04:32am 12.5 SW 6 7 1016.2 - 0.0 - Partly cloudy - - - - -
17/04:30am 12.5 SW 6 7 1016.2 - 0.0 - Partly cloudy - - - - -
17/04:00am 13.0 WSW 6 8 1016.2 - 0.0 - - - - - - -
17/03:30am 13.4 WSW 6 8 1016.2 - 0.0 - - - - - - -
17/03:00am 14.1 WSW 6 9 1016.2 - 0.0 - - - - - - -
17/02:30am 14.2 WSW 6 8 1016.3 - 0.0 - - - - - - -
17/02:00am 14.3 WSW 6 8 1016.4 - 0.0 - - - - - - -
17/01:30am 14.6 WSW 6 8 1016.5 - 0.0 - Partly cloudy - - - - -
17/01:00am 14.6 WSW 6 8 1016.6 - 0.0 - Partly cloudy - - - - -
17/12:33am 14.5 WSW 6 7 1016.6 - 0.0 - Partly cloudy - - - - -
17/12:30am 14.6 WSW 6 7 1016.6 - 0.0 - Partly cloudy - - - - -
17/12:00am 14.5 SW 7 9 1016.6 - 0.0 - Mostly cloudy - - - - -
 
Date/Time
EST
Temp
°C
Wind Pressure Rain since
9am
mm
Weather Cloud Vis
km
Sea
Height
m
Swell
Dir  Spd
kts
Gust
kts
hPa Trend Height
m
Period
s
Dir
16/11:50pm 14.8 WSW 7 9 1016.6 - 0.0 - Partly cloudy - - - - -
16/11:30pm 14.9 SW 6 7 1016.6 - 0.0 - - - - - - -
16/11:00pm 15.4 WSW 7 8 1016.6 - 0.0 - - - - - - -
16/10:30pm 15.9 WSW 6 7 1016.5 - 0.0 - - - - - - -
16/10:00pm 16.3 WSW 6 7 1016.6 - 0.0 - - - - - - -
16/09:30pm 16.9 WSW 5 6 1016.6 - 0.0 - - - - - - -
16/09:00pm 17.4 SW 3 5 1016.3 R 0.0 - - - - - - -
16/08:30pm 18.4 CALM 0 0 1016.1 - 0.0 - - - - - - -
16/08:00pm 18.4 CALM 0 2 1015.8 - 0.0 - - - - - - -
16/07:30pm 18.5 SW 3 4 1015.5 - 0.0 - - - - - - -
16/07:00pm 18.7 CALM 0 0 1015.0 - 0.0 - - - - - - -
16/06:30pm 18.7 CALM 0 0 1014.5 - 0.0 - - - - - - -
16/06:00pm 18.6 N 3 4 1013.9 F 0.0 - - - - - - -
16/05:30pm 19.4 NNE 3 6 1013.7 - 0.0 - - - - - - -
16/05:00pm 20.7 N 6 9 1013.3 - 0.0 - - - - - - -
16/04:30pm 21.3 NNE 7 12 1013.2 - 0.0 - - - - - - -
16/04:00pm 22.0 NNE 6 11 1013.0 - 0.0 - - - - - - -
16/03:30pm 22.4 NNE 7 12 1013.1 - 0.0 - - - - - - -
16/03:00pm 23.6 NNE 5 8 1013.5 F 0.0 - - - - - - -
16/02:30pm 23.5 NNE 7 11 1013.8 - 0.0 - - - - - - -
16/02:00pm 22.9 NE 6 9 1014.0 - 0.0 - - - - - - -
16/01:30pm 22.7 NE 6 10 1014.3 - 0.0 - - - - - - -
16/01:00pm 21.6 ENE 6 10 1014.7 - 0.0 - - - - - - -
16/12:30pm 22.1 ENE 5 8 1015.3 - 0.0 - - - - - - -
16/12:00pm 20.6 ESE 5 7 1015.9 F 0.0 - Mostly clear - - - - -
16/11:30am 20.4 ESE 6 8 1016.4 - 0.0 - - - - - - -
16/11:00am 20.8 SE 5 8 1016.8 - 0.0 - - - - - - -
16/10:30am 21.4 SSW 3 5 1017.0 - 0.0 - - - - - - -
16/10:00am 19.8 WSW 5 7 1017.3 - 0.0 - - - - - - -
16/09:30am 17.9 WSW 7 9 1017.3 - 0.0 - - - - - - -
16/09:00am 16.4 WSW 7 9 1017.1 R 0.0 - - - - - - -
16/08:30am 14.6 WSW 7 10 1016.8 - 0.0 - - - - - - -
16/08:00am 12.9 WSW 8 11 1016.6 - 0.0 - - - - - - -
16/07:30am 11.5 WSW 9 12 1016.4 - 0.0 - - - - - - -
16/07:00am 10.6 WSW 9 11 1016.0 - 0.0 - - - - - - -
16/06:30am 10.6 WSW 9 11 1015.7 - 0.0 - - - - - - -
16/06:00am 11.1 WSW 9 13 1015.4 F 0.0 - - - - - - -
16/05:30am 11.2 WSW 8 11 1015.1 - 0.0 - - - - - - -
16/05:00am 11.2 WSW 8 11 1015.1 - 0.0 - - - - - - -
16/04:30am 11.2 WSW 8 10 1015.2 - 0.0 - - - - - - -
16/04:00am 11.1 WSW 7 10 1015.3 - 0.0 - - - - - - -
16/03:30am 11.4 WSW 8 11 1015.3 - 0.0 - - - - - - -
16/03:00am 11.5 WSW 8 10 1015.4 - 0.0 - - - - - - -
16/02:30am 11.6 WSW 8 10 1015.5 - 0.0 - - - - - - -
16/02:00am 11.7 WSW 7 9 1015.6 - 0.0 - - - - - - -
16/01:30am 11.7 WSW 7 10 1015.8 - 0.0 - - - - - - -
16/01:00am 11.5 WSW 8 11 1016.0 - 0.0 - - - - - - -
16/12:30am 11.6 WSW 9 12 1016.4 - 0.0 - - - - - - -
16/12:00am 11.6 WSW 8 11 1016.4 - 0.0 - - - - - - -
 
Date/Time
EST
Temp
°C
Wind Pressure Rain since
9am
mm
Weather Cloud Vis
km
Sea
Height
m
Swell
Dir  Spd
kts
Gust
kts
hPa Trend Height
m
Period
s
Dir
15/11:30pm 11.9 WSW 7 9 1016.5 - 0.0 - - - - - - -
15/11:00pm 12.3 WSW 7 9 1016.5 - 0.0 - - - - - - -
15/10:30pm 12.5 WSW 7 9 1016.4 - 0.0 - - - - - - -
15/10:00pm 12.9 WSW 8 9 1016.4 - 0.0 - - - - - - -
15/09:30pm 13.0 WSW 7 8 1016.5 - 0.0 - - - - - - -
15/09:00pm 13.5 WSW 6 7 1016.4 F 0.0 - - - - - - -
15/08:30pm 15.4 S 3 6 1016.3 - 0.0 - - - - - - -
15/08:00pm 17.3 ESE 4 7 1016.0 - 0.0 - - - - - - -
15/07:30pm 17.4 E 4 8 1015.9 - 0.0 - - - - - - -
15/07:00pm 17.3 ESE 5 7 1015.7 - 0.0 - - - - - - -
15/06:30pm 17.8 ESE 5 8 1015.6 - 0.0 - - - - - - -
15/06:00pm 17.6 E 5 8 1015.3 F 0.0 - - - - - - -
15/05:30pm 17.8 ESE 6 9 1015.0 - 0.0 - - - - - - -
15/05:00pm 18.4 ESE 7 10 1014.7 - 0.0 - - - - - - -
15/04:30pm 19.0 ESE 6 8 1014.8 - 0.0 - - - - - - -
15/04:00pm 19.5 ESE 6 9 1014.8 - 0.0 - - - - - - -
15/03:30pm 19.6 ESE 6 10 1014.8 - 0.0 - - - - - - -
15/03:00pm 19.9 ESE 7 11 1015.0 S 0.0 - - - - - - -
15/02:30pm 19.8 ESE 6 9 1015.2 - 0.0 - - - - - - -
15/02:00pm 20.0 ESE 7 12 1015.5 - 0.0 - - - - - - -
15/01:30pm 19.7 ESE 7 13 1015.8 - 0.0 - - - - - - -
15/01:00pm 20.3 SE 7 12 1016.1 - 0.0 - - - - - - -
15/12:30pm 20.0 SE 7 11 1016.5 - 0.0 - - - - - - -
15/12:00pm 20.4 SE 7 11 1017.0 F 0.0 - - - - - - -
15/11:30am 20.1 SSE 7 12 1017.4 - 0.0 - - - - - - -
15/11:00am 19.8 SSE 8 13 1017.7 - 0.0 - - - - - - -
15/10:30am 19.2 SSE 8 12 1017.9 - 0.0 - - - - - - -
15/10:00am 18.5 S 8 13 1018.3 - 0.0 - - - - - - -
15/09:30am 17.4 SSW 7 10 1018.3 - 0.0 - - - - - - -
15/09:00am 15.9 SSW 7 11 1018.1 F 0.0 - - - - - - -
15/08:30am 14.0 SW 7 9 1018.0 - 0.0 - - - - - - -
15/08:00am 12.3 SW 7 9 1017.9 - 0.0 - - - - - - -
15/07:30am 11.1 SW 8 9 1017.7 - 0.0 - - - - - - -
15/07:00am 10.5 SW 8 10 1017.4 - 0.0 - - - - - - -
15/06:30am 10.6 SW 8 10 1017.2 - 0.0 - - - - - - -
15/06:00am 10.7 WSW 8 10 1017.1 S 0.0 - - - - - - -
15/05:30am 10.8 WSW 7 9 1016.6 - 0.0 - - - - - - -
15/05:00am 10.7 WSW 7 9 1016.4 - 0.0 - - - - - - -
15/04:30am 10.8 SW 6 9 1016.3 - 0.0 - - - - - - -
15/04:00am 11.1 WSW 7 9 1016.3 - 0.0 - - - - - - -
15/03:30am 11.2 WSW 7 9 1016.5 - 0.0 - - - - - - -
15/03:00am 11.4 WSW 8 10 1016.7 - 0.0 - - - - - - -
15/02:30am 11.4 SW 7 9 1016.5 - 0.0 - - - - - - -
15/02:00am 11.8 SW 7 8 1016.6 - 0.0 - - - - - - -
15/01:30am 12.1 SW 7 9 1016.8 - 0.0 - - - - - - -
15/01:00am 12.2 WSW 7 9 1016.9 - 0.0 - - - - - - -
15/12:30am 12.5 WSW 7 9 1017.1 - 0.0 - - - - - - -
15/12:00am 12.8 WSW 7 9 1017.1 - 0.0 - - - - - - -
 
Date/Time
EST
Temp
°C
Wind Pressure Rain since
9am
mm
Weather Cloud Vis
km
Sea
Height
m
Swell
Dir  Spd
kts
Gust
kts
hPa Trend Height
m
Period
s
Dir
14/11:30pm 13.2 WSW 8 10 1017.1 - 0.0 - - - - - - -
14/11:00pm 13.6 WSW 7 8 1017.2 - 0.0 - - - - - - -
14/10:30pm 13.9 WSW 7 7 1017.3 - 0.0 - - - - - - -
14/10:00pm 13.8 WSW 7 8 1017.2 - 0.0 - - - - - - -
14/09:30pm 13.9 WSW 6 8 1016.9 - 0.0 - - - - - - -
14/09:00pm 15.0 WSW 5 9 1016.7 F 0.0 - - - - - - -
14/08:30pm 18.4 E 5 7 1016.7 - 0.0 - - - - - - -
14/08:00pm 18.5 E 6 9 1016.4 - 0.0 - - - - - - -
14/07:30pm 18.7 E 7 9 1016.0 - 0.0 - - - - - - -
14/07:00pm 18.4 E 7 11 1015.8 - 0.0 - - - - - - -
14/06:30pm 18.8 E 7 11 1015.7 - 0.0 - - - - - - -
14/06:00pm 18.7 ESE 6 9 1015.5 F 0.0 - - - - - - -
14/05:30pm 18.8 ESE 5 9 1015.3 - 0.0 - - - - - - -
14/05:00pm 19.0 ESE 6 10 1015.3 - 0.0 - - - - - - -
14/04:30pm 19.4 ESE 7 11 1015.1 - 0.0 - - - - - - -
14/04:00pm 19.4 ESE 7 12 1015.0 - 0.0 - - - - - - -
14/03:30pm 19.4 SE 8 12 1015.0 - 0.0 - - - - - - -
14/03:00pm 19.6 SE 10 17 1015.2 F 0.0 - - - - - - -
14/02:30pm 20.0 SE 9 15 1015.5 - 0.0 - - - - - - -

Other Formats:

Comma delimited format used in spreadsheet applications
http://www.bom.gov.au/fwo/IDQ60701/IDQ60701.94367.axf

JavaScript Object Notation format (JSON) in row-major order
http://www.bom.gov.au/fwo/IDQ60701/IDQ60701.94367.json